February 26, 2024
Temp
 
56.9 °F
 
Dew Pt.
 
53.1 °F
 
Humidity
 
87%
 
Pressure
 
1014.2 hPa 
  steady
Wind
 
0.0 mph 
    ESE
Rain
 
0.03 in 
  0.00 in/hr
UV index
 
---  
 
Solar rad.
 
100 W/m²
 
MAP MAG LOCAL DATETIME
y/m/d h:m:s
LAT
deg
LON
deg
DEPTH
km
LOCATION
map1.72024/02/26 18:30:5540.511N124.132W23.28 2 km ( 2 mi) WNW of Rio Dell, CA
map0.82024/02/26 18:22:0238.827N122.798W1.26 6 km ( 4 mi) W of Cobb, CA
map1.62024/02/26 18:10:1536.770N121.437W6.84 8 km ( 5 mi) SW of Ridgemark, CA
map0.32024/02/26 18:02:2438.828N122.799W0.4 7 km ( 4 mi) W of Cobb, CA
map1.72024/02/26 17:31:3338.735N117.021W7.4 76 km (47 mi) NNE of Tonopah, NV
map1.02024/02/26 17:24:0736.475N115.848W12.5 33 km (21 mi) NNE of Pahrump, NV
map0.72024/02/26 16:46:4338.798N122.755W2.63 2 km ( 1 mi) N of The Geysers, CA
map1.32024/02/26 16:33:5938.869N122.810W0.53 9 km ( 6 mi) NW of Cobb, CA
map1.32024/02/26 16:25:4138.825N122.788W1.33 6 km ( 4 mi) W of Cobb, CA
map0.92024/02/26 15:07:0538.833N122.812W1.8 8 km ( 5 mi) W of Cobb, CA
map0.62024/02/26 15:04:3038.834N122.813W1.77 8 km ( 5 mi) W of Cobb, CA
map1.82024/02/26 15:02:2835.879N117.665W7.78 23 km (14 mi) ESE of Little Lake, CA
map1.12024/02/26 14:38:1538.821N122.793W0.54 6 km ( 4 mi) NNW of The Geysers, CA
map0.92024/02/26 14:33:4738.822N122.789W1.14 6 km ( 4 mi) NNW of The Geysers, CA
map1.12024/02/26 14:14:0838.829N122.812W2.1 8 km ( 5 mi) NW of The Geysers, CA
map1.32024/02/26 14:13:1338.808N122.820W2.56 6 km ( 4 mi) WNW of The Geysers, CA
map1.12024/02/26 13:22:5138.820N122.785W1.7 5 km ( 3 mi) W of Cobb, CA
map0.82024/02/26 13:15:2233.270N116.415W4.13 4 km ( 2 mi) WNW of Borrego Springs, CA
map0.52024/02/26 13:08:1138.830N122.812W2.11 8 km ( 5 mi) NW of The Geysers, CA
map0.32024/02/26 13:08:0738.826N122.798W1.41 6 km ( 4 mi) NW of The Geysers, CA
map1.02024/02/26 13:03:1138.836N122.810W2.37 8 km ( 5 mi) W of Cobb, CA
map1.22024/02/26 12:55:5033.683N116.701W17.11 7 km ( 4 mi) SSE of Idyllwild, CA
map1.42024/02/26 12:35:2538.833N122.799W1.92 7 km ( 4 mi) W of Cobb, CA
map1.02024/02/26 12:13:5734.174N117.934W-0.87 22 km (14 mi) NNW of Quarry at POMONA (Probable quarry explosion)
map0.82024/02/26 11:57:1333.311N116.244W5.36 14 km ( 8 mi) ENE of Borrego Springs, CA
map1.12024/02/26 11:56:0438.831N122.817W1.64 8 km ( 5 mi) NW of The Geysers, CA
map2.12024/02/26 11:54:5133.007N117.758W5.74 41 km (26 mi) WSW of Carlsbad, CA
map0.72024/02/26 11:52:0038.815N122.823W2.19 7 km ( 4 mi) NW of The Geysers, CA
map1.32024/02/26 11:38:5340.111N124.004W14.97 15 km (10 mi) W of Redway, CA
map1.52024/02/26 11:11:4838.808N122.824W1.92 7 km ( 4 mi) WNW of The Geysers, CA
map1.92024/02/26 10:58:3938.150N117.831W11.0 53 km (33 mi) W of Tonopah, NV
map0.72024/02/26 10:54:4838.825N122.785W0.09 5 km ( 3 mi) W of Cobb, CA
map1.72024/02/26 10:44:0138.830N122.793W1.58 6 km ( 4 mi) W of Cobb, CA
map0.22024/02/26 10:31:1338.837N122.800W2.11 7 km ( 4 mi) WNW of Cobb, CA
map0.82024/02/26 10:25:1538.831N122.817W1.68 8 km ( 5 mi) NW of The Geysers, CA
map2.02024/02/26 10:14:1236.887N121.614W1.35 3 km ( 2 mi) E of Aromas, CA
map1.62024/02/26 10:06:2336.485N120.470W11 28 km (18 mi) WSW of San Joaquin, CA
map1.82024/02/26 10:04:0036.605N120.387W17.73 16 km (10 mi) S of Mendota, CA
map1.62024/02/26 09:57:1133.517N116.537W11.02 13 km ( 8 mi) ESE of Anza, CA
map1.32024/02/26 09:51:2938.809N122.824W1.95 7 km ( 4 mi) WNW of The Geysers, CA
map1.72024/02/26 09:46:2838.831N122.815W1.71 8 km ( 5 mi) NW of The Geysers, CA
map0.82024/02/26 09:14:2838.814N122.801W2.96 6 km ( 3 mi) NW of The Geysers, CA
map0.32024/02/26 09:12:0434.692N116.295W2.95 13 km ( 8 mi) WSW of Ludlow, CA
map0.52024/02/26 09:00:4233.520N116.527W12.35 14 km ( 9 mi) ESE of Anza, CA
map1.32024/02/26 08:51:5637.259N117.604W9.1 62 km (38 mi) E of Big Pine, CA
map2.22024/02/26 07:28:2433.090N116.067W8.73 9 km ( 5 mi) SE of Ocotillo Wells, CA
map1.72024/02/26 07:24:1532.413N115.200W15.27 7 km ( 4 mi) N of Delta, B.C., MX
map0.72024/02/26 07:16:5238.838N122.796W1.92 7 km ( 4 mi) WNW of Cobb, CA
map1.52024/02/26 07:09:0035.681N117.521W9.46 14 km ( 9 mi) SW of Searles Valley, CA
map1.12024/02/26 06:43:2932.810N115.582W11.7 3 km ( 2 mi) NW of El Centro, CA
map0.82024/02/26 06:30:4238.815N122.830W1.06 8 km ( 5 mi) NW of The Geysers, CA
map1.82024/02/26 06:27:0838.396N122.778W16.88 4 km ( 3 mi) E of Sebastopol, CA
MAP4.12024/02/26 05:31:3931.416N114.334W5.96107 km (67 mi) SE of Estacion Coahuila, B.C., MX
map1.12024/02/26 05:27:2538.831N122.816W1.67 8 km ( 5 mi) NW of The Geysers, CA
map1.02024/02/26 05:24:3135.718N117.565W2.5 15 km ( 9 mi) NE of Ridgecrest, CA
map2.72024/02/26 04:44:3140.318N124.711W15.59 48 km (30 mi) SW of Ferndale, CA
map0.52024/02/26 04:11:2433.646N116.710W16.59 10 km ( 7 mi) S of Idyllwild, CA
map1.02024/02/26 04:08:2033.686N116.742W16.28 6 km ( 4 mi) SSW of Idyllwild, CA
map1.82024/02/26 03:50:5135.319N118.564W2.94 23 km (14 mi) NNW of Tehachapi, CA
map1.02024/02/26 03:26:5634.226N116.874W4.54 4 km ( 2 mi) ESE of Big Bear Lake, CA
map1.02024/02/26 03:16:4939.420N119.938W7.8 10 km ( 6 mi) S of Mogul, NV
map0.42024/02/26 03:15:5538.816N122.819W1.63 7 km ( 4 mi) NW of The Geysers, CA
map1.12024/02/26 02:07:3932.825N115.610W10.52 5 km ( 3 mi) SW of Imperial, CA
map0.62024/02/26 01:46:1338.839N122.813W2.35 8 km ( 5 mi) WNW of Cobb, CA
map1.12024/02/26 01:38:1332.828N115.609W11.42 4 km ( 3 mi) WSW of Imperial, CA
map1.92024/02/26 01:14:0438.061N116.261W7.7 85 km (53 mi) E of Tonopah, NV
map0.82024/02/26 01:05:2439.610N120.242W9.7 24 km (15 mi) WNW of Verdi, NV
map1.12024/02/26 00:53:1338.812N122.810W2.77 6 km ( 4 mi) NW of The Geysers, CA
map0.82024/02/26 00:44:2433.895N117.744W9.74 6 km ( 4 mi) E of Yorba Linda, CA
map1.72024/02/26 00:27:2638.815N122.814W2.87 6 km ( 4 mi) NW of The Geysers, CA
map1.02024/02/26 00:23:5038.815N122.814W2.6 7 km ( 4 mi) NW of The Geysers, CA
map0.42024/02/26 00:13:0438.791N122.760W3.23 1 km ( 1 mi) N of The Geysers, CA
map1.22024/02/25 23:59:2536.468N121.047W7.69 24 km (15 mi) NE of Greenfield, CA
map1.92024/02/25 23:58:4235.827N117.668W9.95 23 km (14 mi) N of Ridgecrest, CA
map1.62024/02/25 23:58:2935.826N117.669W9.43 23 km (14 mi) N of Ridgecrest, CA
map1.12024/02/25 23:50:4332.853N115.877W8.5 17 km (11 mi) NE of Ocotillo, CA
map1.12024/02/25 23:42:4733.245N116.082W3.2 12 km ( 8 mi) NNE of Ocotillo Wells, CA
map1.02024/02/25 23:39:2439.613N120.236W11.7 23 km (15 mi) WSW of Cold Springs, NV
map1.12024/02/25 23:38:5337.450N118.552W0.0 13 km ( 8 mi) NW of West Bishop, CA
map0.32024/02/25 23:34:1736.474N116.021W8.5 29 km (18 mi) N of Pahrump, NV
map1.32024/02/25 23:31:1736.937N114.358W0.4 29 km (18 mi) WNW of Mesquite, NV
map1.32024/02/25 23:06:3038.779N122.719W1.78 3 km ( 2 mi) E of The Geysers, CA
map1.32024/02/25 23:06:1932.733N115.409W14.49 9 km ( 6 mi) SSW of Holtville, CA
map0.82024/02/25 23:05:5738.770N122.713W3.46 4 km ( 2 mi) ESE of The Geysers, CA
map1.12024/02/25 22:49:5137.881N122.217W7.98 3 km ( 2 mi) W of Orinda, CA
map0.82024/02/25 22:46:2638.844N122.826W1.79 9 km ( 6 mi) WNW of Cobb, CA
map1.02024/02/25 22:42:4638.756N122.722W1.63 4 km ( 2 mi) SE of The Geysers, CA
map0.42024/02/25 22:40:3438.822N122.854W2.63 10 km ( 6 mi) WNW of The Geysers, CA
map1.12024/02/25 22:39:5538.836N122.836W1.44 9 km ( 6 mi) NW of The Geysers, CA
map1.02024/02/25 22:37:4732.827N115.591W15.41 3 km ( 2 mi) SW of Imperial, CA
map0.32024/02/25 22:20:4238.833N122.789W1.22 6 km ( 4 mi) WNW of Cobb, CA
map0.72024/02/25 21:51:0838.814N122.821W3.32 7 km ( 4 mi) NW of The Geysers, CA
map0.72024/02/25 21:05:5238.814N122.830W2.11 8 km ( 5 mi) WNW of The Geysers, CA
map1.32024/02/25 20:59:4733.349N116.950W13.97 8 km ( 5 mi) W of Palomar Observatory, CA
map1.02024/02/25 20:59:2233.806N116.945W13.72 3 km ( 2 mi) NNE of San Jacinto, CA
map1.22024/02/25 19:58:0133.062N115.584W8.63 4 km ( 3 mi) NE of Westmorland, CA
map0.82024/02/25 19:57:5432.775N115.848W14.27 14 km ( 9 mi) ENE of Ocotillo, CA
map0.82024/02/25 19:57:2536.005N117.806W1.55 12 km ( 7 mi) NE of Little Lake, CA
map1.12024/02/25 19:56:4536.009N117.805W1.42 12 km ( 8 mi) NE of Little Lake, CA
map0.82024/02/25 19:56:2736.007N117.805W0.59 12 km ( 8 mi) NE of Little Lake, CA
map1.02024/02/25 19:56:0836.005N117.807W1.02 12 km ( 7 mi) NE of Little Lake, CA
map0.82024/02/25 19:47:3838.793N122.756W0.22 2 km ( 1 mi) N of The Geysers, CA
map1.62024/02/25 19:26:4638.194N117.856W12.9 56 km (35 mi) WNW of Tonopah, NV
map1.42024/02/25 19:16:5135.862N117.685W7.51 22 km (13 mi) ESE of Little Lake, CA
map0.92024/02/25 19:08:1538.819N122.824W2.23 7 km ( 5 mi) NW of The Geysers, CA
map1.42024/02/25 19:05:5032.650N115.745W3.15 17 km (11 mi) WNW of Progreso, B.C., MX
map1.02024/02/25 18:48:2935.393N118.213W8.68 33 km (21 mi) SE of Bodfish, CA
map1.12024/02/25 18:16:1733.996N116.714W11.06 11 km ( 7 mi) NE of Cabazon, CA
map0.82024/02/25 18:13:2638.808N122.825W1.77 7 km ( 4 mi) WNW of The Geysers, CA
map0.12024/02/25 17:50:5239.623N120.240W8.4 23 km (15 mi) WSW of Cold Springs, NV
map1.32024/02/25 17:31:5438.810N122.820W2.96 7 km ( 4 mi) NW of The Geysers, CA
map1.22024/02/25 16:49:3138.791N122.761W1.75 2 km ( 1 mi) NNW of The Geysers, CA
map1.12024/02/25 16:39:3838.815N122.814W2.85 7 km ( 4 mi) NW of The Geysers, CA
map1.52024/02/25 16:33:0136.568N121.089W0.36 26 km (16 mi) NE of Soledad, CA
map1.82024/02/25 16:28:2735.032N117.669W-0.79 1 km ( 1 mi) E of Quarry at BORON (Probable quarry explosion)
map0.62024/02/25 16:25:4238.797N122.780W-0.57 3 km ( 2 mi) NW of The Geysers, CA
map1.52024/02/25 16:22:0933.245N116.087W2.91 12 km ( 8 mi) NNE of Ocotillo Wells, CA
map0.82024/02/25 16:21:2433.250N116.084W2.13 13 km ( 8 mi) NNE of Ocotillo Wells, CA
map1.32024/02/25 16:09:5538.816N122.824W2.2 7 km ( 5 mi) NW of The Geysers, CA
map0.52024/02/25 15:56:4433.299N116.766W11.16 6 km ( 4 mi) N of Lake Henshaw, CA
map1.02024/02/25 15:55:3038.815N122.823W1.98 7 km ( 4 mi) NW of The Geysers, CA
map1.42024/02/25 15:45:3038.131N118.264W0.0 54 km (33 mi) SE of Hawthorne, NV
map1.72024/02/25 15:06:4339.556N123.349W5.92 13 km ( 8 mi) NNE of Brooktrails, CA
map0.62024/02/25 15:05:2138.832N122.877W2.58 12 km ( 8 mi) WNW of The Geysers, CA
map0.32024/02/25 15:03:1338.831N122.879W2.58 12 km ( 8 mi) WNW of The Geysers, CA
map1.32024/02/25 14:52:4638.768N122.642W4.43 3 km ( 2 mi) NW of Middletown, CA
map1.12024/02/25 14:17:2938.766N122.732W0 2 km ( 2 mi) ESE of The Geysers, CA
map0.92024/02/25 14:15:1235.673N117.532W6.87 14 km ( 9 mi) ENE of Ridgecrest, CA
map0.82024/02/25 14:11:5338.822N122.844W1.7 9 km ( 6 mi) WNW of The Geysers, CA
map2.52024/02/25 14:09:3740.662N121.701W0.46 25 km (15 mi) NE of Shingletown, CA
map2.82024/02/25 13:53:1240.131N121.049W-0.25 8 km ( 5 mi) W of Greenville, CA
map1.02024/02/25 13:28:2938.811N122.829W1.57 7 km ( 5 mi) WNW of The Geysers, CA
map2.52024/02/25 13:20:4336.255N121.701W7.47 29 km (18 mi) SSE of Carmel Valley Village, CA
map0.72024/02/25 13:16:1033.676N116.694W15.13 7 km ( 5 mi) SSE of Idyllwild, CA
map0.62024/02/25 13:08:4238.840N122.837W1 10 km ( 6 mi) NW of The Geysers, CA
map1.72024/02/25 13:04:3133.648N116.728W15.71 10 km ( 6 mi) S of Idyllwild, CA
map0.92024/02/25 12:53:2037.551N122.500W5.26 2 km ( 1 mi) NE of Montara, CA
map0.62024/02/25 12:33:5838.838N122.836W1.23 10 km ( 6 mi) NW of The Geysers, CA
map0.92024/02/25 12:29:3339.441N119.479W7.0 12 km ( 7 mi) NW of Stagecoach, NV
map0.72024/02/25 11:21:4638.833N122.815W1.71 8 km ( 5 mi) NW of The Geysers, CA
map1.32024/02/25 11:01:1638.788N122.767W1.95 1 km ( 1 mi) NW of The Geysers, CA
map0.42024/02/25 10:40:5838.818N122.813W2.73 7 km ( 4 mi) NW of The Geysers, CA
map1.42024/02/25 10:29:0338.799N122.749W1.37 2 km ( 2 mi) NNE of The Geysers, CA
map1.42024/02/25 10:26:5933.267N116.786W12.66 4 km ( 2 mi) NW of Lake Henshaw, CA
map0.82024/02/25 10:24:2338.778N122.757W1.42 0 km ( 0 mi) NNW of The Geysers, CA
map1.02024/02/25 10:14:5133.251N116.393W8.77 2 km ( 1 mi) WSW of Borrego Springs, CA
map1.62024/02/25 10:08:4839.364N123.236W6.84 11 km ( 7 mi) NNW of Redwood Valley, CA
map1.22024/02/25 10:05:2938.780N122.744W0.3 1 km ( 1 mi) ENE of The Geysers, CA
map0.92024/02/25 09:35:0338.786N122.720W2.08 3 km ( 2 mi) ENE of The Geysers, CA
map0.32024/02/25 09:25:4438.830N122.817W1.67 8 km ( 5 mi) NW of The Geysers, CA
map1.52024/02/25 08:04:4038.832N122.812W1.74 8 km ( 5 mi) NW of The Geysers, CA
map0.52024/02/25 08:01:0838.829N122.856W2.35 10 km ( 6 mi) WNW of The Geysers, CA
map0.62024/02/25 08:01:0038.830N122.856W2.26 10 km ( 7 mi) NW of The Geysers, CA
MAP3.02024/02/25 07:49:4539.742N122.841W4.69 35 km (22 mi) E of Covelo, CA
map1.12024/02/25 07:26:5338.818N122.759W1.59 3 km ( 2 mi) W of Cobb, CA
map1.42024/02/25 07:25:4738.817N122.762W1.3 3 km ( 2 mi) W of Cobb, CA
map0.72024/02/25 07:21:4238.842N122.824W1.48 9 km ( 6 mi) WNW of Cobb, CA
map1.62024/02/25 07:12:3838.562N119.497W7.1 28 km (17 mi) SSW of Smith Valley, NV
map1.42024/02/25 05:32:4933.197N115.577W3 7 km ( 4 mi) SW of Niland, CA
map2.22024/02/25 05:32:0431.535N115.696W7.24 85 km (53 mi) ESE of Maneadero, B.C., MX
map0.82024/02/25 05:24:0338.833N122.818W1.94 8 km ( 5 mi) NW of The Geysers, CA
map0.72024/02/25 05:16:0837.068N121.490W8.28 10 km ( 6 mi) NE of Gilroy, CA
map1.92024/02/25 05:15:0637.093N118.360W12.26 10 km ( 6 mi) SW of Big Pine, CA
map1.02024/02/25 05:05:2337.318N121.681W5.99 14 km ( 9 mi) ESE of East Foothills, CA
map0.72024/02/25 05:00:2538.836N122.799W1.82 7 km ( 4 mi) WNW of Cobb, CA
map0.32024/02/25 04:04:3536.830N116.151W3.8 54 km (34 mi) E of Beatty, NV
map1.22024/02/25 03:19:5933.241N116.086W3.06 12 km ( 7 mi) NNE of Ocotillo Wells, CA
map0.92024/02/25 03:07:2038.822N122.852W2.29 10 km ( 6 mi) WNW of The Geysers, CA
map1.02024/02/25 03:06:4039.480N120.225W13.1 17 km (11 mi) NNW of Truckee, CA
map0.72024/02/25 03:03:1338.805N122.821W2.94 6 km ( 4 mi) WNW of The Geysers, CA
map1.12024/02/25 02:35:1238.835N122.791W2.12 6 km ( 4 mi) WNW of Cobb, CA
map1.12024/02/25 02:28:3838.824N122.785W0.25 5 km ( 3 mi) W of Cobb, CA
map1.42024/02/25 02:08:3133.268N116.414W4.67 4 km ( 2 mi) WNW of Borrego Springs, CA
map0.22024/02/25 02:04:0238.839N122.834W2.01 10 km ( 6 mi) NW of The Geysers, CA
map1.12024/02/25 01:10:2933.266N116.430W4.64 5 km ( 3 mi) WNW of Borrego Springs, CA
map1.22024/02/25 00:23:5235.908N117.698W8.76 19 km (12 mi) E of Little Lake, CA
map0.92024/02/25 00:02:0735.947N117.658W2.36 22 km (14 mi) E of Little Lake, CA
map1.42024/02/25 00:01:1134.002N118.355W10.84 1 km ( 1 mi) NW of View Park-Windsor Hills, CA
map2.22024/02/24 23:43:2640.388N124.498W22.23 29 km (18 mi) SW of Ferndale, CA
map0.92024/02/24 23:37:4735.894N117.716W9.29 18 km (11 mi) ESE of Little Lake, CA
map0.82024/02/24 23:34:1738.799N122.759W4.38 2 km ( 2 mi) N of The Geysers, CA
map1.02024/02/24 23:18:4436.024N117.773W1.35 15 km (10 mi) NE of Little Lake, CA
map0.42024/02/24 23:18:3838.829N122.815W2.52 8 km ( 5 mi) NW of The Geysers, CA
map1.32024/02/24 22:55:5738.820N122.842W2.28 9 km ( 5 mi) WNW of The Geysers, CA
map0.72024/02/24 22:45:0538.833N122.820W1.64 8 km ( 5 mi) NW of The Geysers, CA
map0.92024/02/24 22:41:0138.819N122.823W2.22 7 km ( 5 mi) NW of The Geysers, CA
map0.72024/02/24 22:28:5138.837N122.836W1.56 10 km ( 6 mi) NW of The Geysers, CA
map1.52024/02/24 22:12:4738.705N119.506W7.6 17 km (10 mi) WSW of Smith Valley, NV
map0.72024/02/24 21:31:4933.511N116.758W4.6 9 km ( 6 mi) WSW of Anza, CA
map0.02024/02/24 21:31:4633.520N116.763W3.39 9 km ( 6 mi) WSW of Anza, CA
map1.12024/02/24 21:27:4033.512N116.760W3.92 9 km ( 6 mi) WSW of Anza, CA
map0.82024/02/24 21:25:1138.836N122.812W1.93 8 km ( 5 mi) WNW of Cobb, CA
map0.62024/02/24 20:43:4835.888N117.709W7.82 19 km (12 mi) ESE of Little Lake, CA
map0.72024/02/24 20:42:2138.836N122.790W2.04 6 km ( 4 mi) WNW of Cobb, CA
map0.22024/02/24 20:34:4238.832N122.812W1.55 8 km ( 5 mi) NW of The Geysers, CA
map0.82024/02/24 20:32:2735.666N117.510W7.81 15 km ( 9 mi) SW of Searles Valley, CA
map0.82024/02/24 20:21:0838.793N122.747W1.79 2 km ( 1 mi) NNE of The Geysers, CA
map0.42024/02/24 20:03:5838.827N122.805W1.43 7 km ( 4 mi) NW of The Geysers, CA
map2.02024/02/24 20:01:2238.195N117.871W12.1 58 km (36 mi) WNW of Tonopah, NV
map2.12024/02/24 20:01:0134.008N116.957W17.79 8 km ( 5 mi) ESE of Yucaipa, CA
map0.52024/02/24 19:53:1338.791N122.766W0.75 2 km ( 1 mi) NNW of The Geysers, CA
map1.42024/02/24 19:35:5638.066N116.258W8.5 85 km (53 mi) E of Tonopah, NV
map0.82024/02/24 19:32:3333.892N116.768W13.94 3 km ( 2 mi) SSE of Cabazon, CA
map0.62024/02/24 19:05:4134.567N118.165W6.13 6 km ( 4 mi) WSW of Palmdale, CA
map0.72024/02/24 19:01:3638.787N122.780W1.02 2 km ( 1 mi) WNW of The Geysers, CA
map0.72024/02/24 18:59:5038.786N122.769W3.31 1 km ( 1 mi) NW of The Geysers, CA
map1.62024/02/24 18:50:2438.815N122.823W2.11 7 km ( 4 mi) NW of The Geysers, CA
map0.92024/02/24 18:20:2636.028N117.789W1.75 14 km ( 9 mi) E of Coso Junction, CA
map0.82024/02/24 17:34:5635.873N117.672W7.33 22 km (14 mi) ESE of Little Lake, CA
map1.12024/02/24 17:30:0538.843N122.881W2.51 13 km ( 8 mi) ENE of Cloverdale, CA
map0.92024/02/24 17:24:5733.848N117.595W11.04 4 km ( 2 mi) SW of Corona, CA
map0.32024/02/24 17:21:5338.831N122.813W1.51 8 km ( 5 mi) NW of The Geysers, CA
map0.52024/02/24 17:18:3033.520N116.518W12.83 15 km ( 9 mi) ESE of Anza, CA
map1.62024/02/24 17:12:5833.289N116.273W2.91 10 km ( 6 mi) ENE of Borrego Springs, CA
map0.62024/02/24 17:03:4335.629N117.463W7.49 16 km (10 mi) SSW of Searles Valley, CA
map1.42024/02/24 16:34:4438.153N117.869W12.1 57 km (35 mi) W of Tonopah, NV
map1.22024/02/24 16:34:0639.363N123.236W7.1 11 km ( 7 mi) NNW of Redwood Valley, CA
map0.82024/02/24 16:27:0733.657N116.741W12.84 10 km ( 6 mi) SSW of Idyllwild, CA
map1.02024/02/24 16:17:5738.753N122.701W1.56 6 km ( 3 mi) ESE of The Geysers, CA
map0.52024/02/24 16:11:2137.385N122.280W8.73 4 km ( 2 mi) W of Portola Valley, CA
map1.32024/02/24 15:39:5138.784N122.744W0.46 1 km ( 1 mi) NE of The Geysers, CA
map0.22024/02/24 15:14:3638.834N122.795W1.42 6 km ( 4 mi) WNW of Cobb, CA
map0.12024/02/24 14:53:2636.750N115.861W2.1 62 km (38 mi) NNE of Pahrump, NV
map0.82024/02/24 14:47:0238.833N122.816W1.88 8 km ( 5 mi) NW of The Geysers, CA
map1.22024/02/24 14:38:5033.958N116.992W16 3 km ( 2 mi) NNW of Beaumont, CA
map1.32024/02/24 14:38:1734.056N117.279W14.88 2 km ( 1 mi) WNW of Loma Linda, CA
map1.22024/02/24 14:38:0034.047N117.266W15.09 0 km ( 0 mi) WSW of Loma Linda, CA
map0.82024/02/24 14:31:1038.836N122.801W2.29 7 km ( 4 mi) WNW of Cobb, CA
map0.92024/02/24 13:52:5933.271N116.429W4.17 5 km ( 3 mi) WNW of Borrego Springs, CA
map0.52024/02/24 13:51:0438.826N122.797W1.37 6 km ( 4 mi) W of Cobb, CA
map0.82024/02/24 13:39:5037.663N122.507W7.87 3 km ( 2 mi) SW of Broadmoor, CA
map1.12024/02/24 13:39:3833.262N116.425W4.39 5 km ( 3 mi) W of Borrego Springs, CA
map2.12024/02/24 13:36:0638.483N122.715W5.44 4 km ( 2 mi) NNW of Santa Rosa, CA
map1.32024/02/24 13:10:4137.519N119.368W19.84 31 km (19 mi) SE of Yosemite Valley, CA
map1.62024/02/24 13:00:5038.173N117.902W11.1 60 km (37 mi) W of Tonopah, NV
map0.82024/02/24 12:54:4438.829N122.815W2.29 8 km ( 5 mi) NW of The Geysers, CA
map0.92024/02/24 12:30:4338.835N122.818W1.72 8 km ( 5 mi) W of Cobb, CA
map0.82024/02/24 11:59:5138.821N122.806W1.74 7 km ( 4 mi) NW of The Geysers, CA
map1.22024/02/24 11:59:2838.771N122.739W0.52 2 km ( 1 mi) ESE of The Geysers, CA
map0.42024/02/24 11:50:5638.832N122.818W1.84 8 km ( 5 mi) NW of The Geysers, CA
map0.72024/02/24 11:47:5938.837N122.803W2.03 7 km ( 4 mi) WNW of Cobb, CA
map1.62024/02/24 11:41:3336.031N121.047W8.95 21 km (13 mi) SSE of King City, CA
map0.42024/02/24 11:40:1238.832N122.819W2 8 km ( 5 mi) NW of The Geysers, CA
map1.32024/02/24 11:36:3035.049N118.319W-0.93 0 km ( 0 mi) SE of Quarry at MOJAVE (Probable quarry explosion)
map1.62024/02/24 11:16:1637.575N118.685W8.58 27 km (17 mi) ESE of Mammoth Lakes, CA
map1.12024/02/24 11:11:2439.099N119.643W11.9 9 km ( 6 mi) NE of Johnson Lane, NV
map1.52024/02/24 11:09:1033.824N117.004W12.81 6 km ( 4 mi) NW of San Jacinto, CA
map0.82024/02/24 11:00:4038.831N122.818W1.96 8 km ( 5 mi) NW of The Geysers, CA
map0.52024/02/24 10:53:2438.840N122.810W2.22 8 km ( 5 mi) WNW of Cobb, CA
map1.42024/02/24 10:23:5935.104N118.180W9.11 6 km ( 4 mi) N of Mojave, CA
map1.12024/02/24 10:14:0633.707N116.760W15.87 5 km ( 3 mi) SW of Idyllwild, CA
map1.12024/02/24 09:26:0339.328N118.478W11.6 30 km (19 mi) ESE of Fallon, NV
map0.72024/02/24 09:25:5638.831N122.815W2.03 8 km ( 5 mi) NW of The Geysers, CA
map0.62024/02/24 09:12:1133.643N116.695W14.23 10 km ( 6 mi) NNW of Anza, CA
map1.12024/02/24 09:00:2037.640N118.012W0.0 45 km (28 mi) NE of Dixon Lane-Meadow Creek, CA
map0.72024/02/24 08:35:4133.652N116.736W13.97 10 km ( 6 mi) S of Idyllwild, CA
map1.32024/02/24 08:29:0136.031N121.043W8.71 21 km (13 mi) SSE of King City, CA
map1.42024/02/24 08:10:2239.219N123.135W0.08 8 km ( 5 mi) SE of Redwood Valley, CA
map1.72024/02/24 08:05:4033.697N116.817W16.36 9 km ( 6 mi) SE of Valle Vista, CA
map0.42024/02/24 08:05:1638.836N122.790W2.01 6 km ( 4 mi) WNW of Cobb, CA
map1.62024/02/24 07:30:1538.753N118.820W11.3 31 km (19 mi) NW of Hawthorne, NV
map0.32024/02/24 06:57:2839.422N119.937W7.8 10 km ( 6 mi) S of Mogul, NV
map1.22024/02/24 06:53:2235.835N117.668W7.72 24 km (15 mi) N of Ridgecrest, CA
map2.42024/02/24 05:40:0038.189N117.525W13.5 29 km (18 mi) WNW of Tonopah, NV
map1.32024/02/24 05:26:1833.252N115.655W2.92 13 km ( 8 mi) W of Niland, CA
map0.82024/02/24 05:07:1938.817N122.807W1.9 6 km ( 4 mi) NW of The Geysers, CA
map1.02024/02/24 04:57:1638.846N122.816W1.46 9 km ( 5 mi) WNW of Cobb, CA
map1.62024/02/24 04:53:3638.783N122.744W0.15 1 km ( 1 mi) ENE of The Geysers, CA
map0.82024/02/24 03:52:5638.828N122.801W1.59 7 km ( 4 mi) W of Cobb, CA
map1.52024/02/24 03:52:4938.826N122.800W1.81 7 km ( 4 mi) NW of The Geysers, CA
map2.02024/02/24 03:30:1339.121N122.954W1.92 6 km ( 3 mi) NW of North Lakeport, CA
map-0.12024/02/24 03:24:4436.636N116.024W3.5 47 km (30 mi) N of Pahrump, NV
map0.22024/02/24 03:22:0137.069N116.199W3.7 52 km (33 mi) ENE of Beatty, NV
map0.52024/02/24 03:10:2338.806N122.777W1.86 4 km ( 2 mi) NNW of The Geysers, CA
map1.22024/02/24 03:09:4238.758N118.820W14.1 31 km (19 mi) NNW of Hawthorne, NV
map1.12024/02/24 03:04:2938.841N122.811W1.98 8 km ( 5 mi) WNW of Cobb, CA
map0.42024/02/24 03:01:0233.594N116.811W7.62 13 km ( 8 mi) WNW of Anza, CA
map0.32024/02/24 02:48:1738.828N122.795W4.62 6 km ( 4 mi) W of Cobb, CA
map0.62024/02/24 02:28:0638.839N122.837W1.89 10 km ( 6 mi) NW of The Geysers, CA
map1.42024/02/24 02:24:5338.757N118.641W0.5 26 km (16 mi) N of Hawthorne, NV
map0.02024/02/24 02:16:5539.173N119.638W2.9 8 km ( 5 mi) SSW of Dayton, NV
map0.72024/02/24 02:00:3438.834N122.818W1.92 8 km ( 5 mi) NW of The Geysers, CA
map1.52024/02/24 01:41:2338.801N122.779W1.22 3 km ( 2 mi) NW of The Geysers, CA
map0.72024/02/24 01:26:1637.543N118.845W3.63 16 km (10 mi) SE of Mammoth Lakes, CA
map0.52024/02/24 01:17:1933.498N116.435W7.65 22 km (13 mi) SSW of La Quinta, CA
map0.72024/02/24 01:02:2338.822N122.847W1.68 9 km ( 6 mi) WNW of The Geysers, CA
map1.12024/02/24 00:39:1738.813N122.810W1.12 6 km ( 4 mi) NW of The Geysers, CA
map0.82024/02/24 00:23:1238.824N122.844W2.11 9 km ( 6 mi) NW of The Geysers, CA
map0.82024/02/24 00:22:5638.821N122.842W2.08 9 km ( 6 mi) WNW of The Geysers, CA
map2.42024/02/24 00:20:0138.822N122.841W2.17 9 km ( 6 mi) NW of The Geysers, CA
map1.82024/02/24 00:11:3637.127N121.525W6.7 9 km ( 6 mi) ENE of San Martin, CA
map0.82024/02/23 23:48:5138.826N122.806W2.8 7 km ( 4 mi) NW of The Geysers, CA
map0.82024/02/23 23:45:5735.914N117.677W9.02 21 km (13 mi) E of Little Lake, CA
map1.42024/02/23 23:33:5735.911N117.680W8.13 21 km (13 mi) E of Little Lake, CA
map1.22024/02/23 23:26:4937.369N119.349W-0.02 27 km (17 mi) E of Oakhurst, CA
map0.82024/02/23 23:21:0238.814N122.826W2.24 7 km ( 5 mi) NW of The Geysers, CA
map0.22024/02/23 23:13:1636.816N116.141W4.2 56 km (35 mi) E of Beatty, NV
map1.62024/02/23 23:12:5732.882N115.534W5.24 5 km ( 3 mi) NE of Imperial, CA
map1.22024/02/23 23:05:3438.834N122.816W1.79 8 km ( 5 mi) W of Cobb, CA
map1.12024/02/23 23:02:0937.356N122.168W5.64 4 km ( 2 mi) SW of Los Altos Hills, CA
map1.02024/02/23 22:59:4138.824N122.795W2.74 6 km ( 4 mi) NNW of The Geysers, CA
map0.82024/02/23 22:54:0634.095N117.314W14.64 2 km ( 1 mi) N of Colton, CA
map1.02024/02/23 22:49:0837.299N117.602W7.7 63 km (39 mi) ENE of Big Pine, CA
map1.82024/02/23 22:26:1532.305N115.391W1.5 19 km (12 mi) WSW of Delta, B.C., MX
map0.62024/02/23 22:23:4733.366N116.376W12.13 12 km ( 8 mi) N of Borrego Springs, CA
map0.52024/02/23 22:22:2039.397N119.767W6.4 15 km ( 9 mi) SSE of Reno, NV
map1.32024/02/23 22:13:1338.755N118.821W13.9 31 km (19 mi) NW of Hawthorne, NV
map0.82024/02/23 21:58:5138.809N122.822W2.2 7 km ( 4 mi) WNW of The Geysers, CA
MAP3.02024/02/23 21:25:0940.464N125.624W10116 km (72 mi) W of Ferndale, CA
map1.02024/02/23 21:22:1233.307N116.249W4.05 13 km ( 8 mi) ENE of Borrego Springs, CA
map1.02024/02/23 21:10:0334.569N118.955W8.85 19 km (12 mi) N of Fillmore, CA
map1.92024/02/23 21:09:2234.574N118.950W10.66 20 km (12 mi) N of Fillmore, CA
map1.32024/02/23 20:48:5333.384N116.877W4.6 3 km ( 2 mi) NNW of Palomar Observatory, CA
map-0.32024/02/23 20:25:0537.077N116.366W0.0 39 km (24 mi) ENE of Beatty, NV
map2.22024/02/23 20:23:2338.793N122.731W1.27 3 km ( 2 mi) NE of The Geysers, CA
map-0.32024/02/23 20:14:3636.789N116.071W6.9 62 km (39 mi) ESE of Beatty, NV
map0.82024/02/23 20:06:4638.787N122.785W1.56 3 km ( 2 mi) WNW of The Geysers, CA
map0.72024/02/23 20:04:0635.706N117.508W10.16 12 km ( 7 mi) SW of Searles Valley, CA
map0.62024/02/23 19:28:5638.831N122.819W1.74 8 km ( 5 mi) NW of The Geysers, CA
map1.32024/02/23 18:26:4438.471N119.504W12.1 37 km (23 mi) SSW of Smith Valley, NV
map1.52024/02/23 18:06:4140.550N124.245W20.94 3 km ( 2 mi) SSE of Ferndale, CA
map2.52024/02/23 18:02:1440.298N122.067W7.69 20 km (12 mi) NE of Red Bluff, CA
map0.92024/02/23 16:49:3136.714N121.310W5.14 12 km ( 8 mi) SSE of Ridgemark, CA
map2.42024/02/23 16:47:3140.292N124.573W17.3 41 km (25 mi) SW of Ferndale, CA
map0.82024/02/23 16:32:0738.796N122.811W3.28 5 km ( 3 mi) WNW of The Geysers, CA
map1.12024/02/23 16:23:1533.196N116.032W6.77 11 km ( 7 mi) ENE of Ocotillo Wells, CA
map1.42024/02/23 16:19:5933.063N116.190W5.9 10 km ( 6 mi) SSW of Ocotillo Wells, CA
map1.52024/02/23 16:19:4839.019N123.312W1.66 5 km ( 3 mi) ENE of Boonville, CA
map0.82024/02/23 15:58:0638.821N122.853W2.5 10 km ( 6 mi) WNW of The Geysers, CA
map1.82024/02/23 15:29:4139.493N119.485W4.5 16 km (10 mi) NW of Stagecoach, NV
map1.02024/02/23 15:02:0038.832N122.798W1.33 7 km ( 4 mi) W of Cobb, CA
map1.02024/02/23 14:52:2838.783N122.747W-0.01 1 km ( 1 mi) NE of The Geysers, CA
map1.32024/02/23 14:14:1035.677N117.508W2.84 14 km ( 9 mi) SW of Searles Valley, CA
map1.32024/02/23 14:10:4938.142N117.898W3.5 59 km (37 mi) W of Tonopah, NV
map0.82024/02/23 14:09:3738.836N122.800W1.91 7 km ( 4 mi) WNW of Cobb, CA
map0.82024/02/23 13:58:2438.787N122.726W-0.42 3 km ( 2 mi) ENE of The Geysers, CA
map0.42024/02/23 13:39:3238.833N122.804W1.3 7 km ( 4 mi) W of Cobb, CA
map1.02024/02/23 13:20:1636.577N121.411W-0.29 18 km (11 mi) NW of Quarry near Soledad, CA (Probable quarry explosion)
map1.02024/02/23 13:20:0933.870N117.506W1.53 2 km ( 1 mi) ESE of Home Gardens, CA
map0.42024/02/23 13:18:3638.800N122.751W1.45 3 km ( 2 mi) N of The Geysers, CA
map0.52024/02/23 13:13:5933.267N116.420W5 4 km ( 3 mi) WNW of Borrego Springs, CA
map0.72024/02/23 13:13:1038.796N122.745W0.93 2 km ( 1 mi) NNE of The Geysers, CA
map0.82024/02/23 13:00:3432.834N117.043W-0.08 1 km ( 1 mi) WNW of Quarry at CPE-3 (Probable quarry explosion)
map0.62024/02/23 12:35:4438.835N122.790W1.45 6 km ( 4 mi) WNW of Cobb, CA
map1.22024/02/23 12:30:1633.873N117.493W-0.45 3 km ( 2 mi) NNE of Quarry at CORONA (Probable quarry explosion)
map0.82024/02/23 11:38:2338.843N122.821W1.26 9 km ( 5 mi) WNW of Cobb, CA
map0.82024/02/23 11:32:3238.814N122.825W2.28 7 km ( 5 mi) NW of The Geysers, CA
map0.62024/02/23 11:29:3933.486N116.483W14.34 19 km (12 mi) ESE of Anza, CA
map0.82024/02/23 11:28:4338.814N122.795W1.54 5 km ( 3 mi) NW of The Geysers, CA
map1.02024/02/23 11:28:2233.424N116.653W4.57 15 km ( 9 mi) S of Anza, CA
map1.12024/02/23 11:25:5738.832N122.821W1.43 8 km ( 5 mi) NW of The Geysers, CA
map0.42024/02/23 11:24:0039.418N119.924W7.2 11 km ( 7 mi) S of Mogul, NV
map1.22024/02/23 11:18:5937.429N115.647W0.8 43 km (27 mi) W of Alamo, NV
map0.82024/02/23 11:12:4338.832N122.793W2.06 6 km ( 4 mi) W of Cobb, CA
map1.22024/02/23 11:10:2236.031N120.606W-0.34 22 km (13 mi) NW of Parkfield, CA
map1.32024/02/23 10:58:0937.411N118.590W18.33 13 km ( 8 mi) WNW of West Bishop, CA
map1.42024/02/23 10:50:1535.675N117.510W3.22 14 km ( 9 mi) SW of Searles Valley, CA
map0.82024/02/23 10:47:5038.815N122.822W1.23 7 km ( 4 mi) NW of The Geysers, CA
map0.32024/02/23 10:40:4833.474N116.467W13.03 21 km (13 mi) ESE of Anza, CA
map1.02024/02/23 09:55:3238.835N122.791W2.03 6 km ( 4 mi) WNW of Cobb, CA
map1.52024/02/23 09:43:2234.207N117.595W12.79 9 km ( 6 mi) N of Rancho Cucamonga, CA
map1.12024/02/23 09:06:2138.818N122.824W2.27 7 km ( 5 mi) NW of The Geysers, CA
map1.02024/02/23 09:05:4438.835N122.788W1.88 6 km ( 4 mi) WNW of Cobb, CA
map0.82024/02/23 08:59:0238.836N122.788W1.83 6 km ( 4 mi) WNW of Cobb, CA
map1.32024/02/23 08:39:1038.825N122.788W1.69 6 km ( 3 mi) W of Cobb, CA
map0.62024/02/23 08:33:4338.785N122.738W1.67 2 km ( 1 mi) ENE of The Geysers, CA
map0.72024/02/23 08:32:1238.830N122.819W1.84 8 km ( 5 mi) NW of The Geysers, CA
map0.82024/02/23 08:03:5833.423N116.416W13.77 19 km (12 mi) NNW of Borrego Springs, CA
map0.42024/02/23 07:41:2838.823N122.845W2.32 9 km ( 6 mi) WNW of The Geysers, CA
map0.22024/02/23 07:30:2038.840N122.835W1.25 10 km ( 6 mi) NW of The Geysers, CA
map0.12024/02/23 07:10:5235.609N117.481W9.5 18 km (11 mi) E of Ridgecrest, CA
map2.12024/02/23 06:51:5240.297N124.490W20.12 36 km (23 mi) SSW of Ferndale, CA
map0.82024/02/23 06:46:2438.815N122.788W1.79 5 km ( 3 mi) NW of The Geysers, CA
map1.92024/02/23 06:43:3333.838N117.709W7.83 10 km ( 6 mi) ENE of Villa Park, CA
map0.82024/02/23 06:03:4038.812N122.821W2.33 7 km ( 4 mi) NW of The Geysers, CA
map0.62024/02/23 05:54:3933.679N116.757W18.39 8 km ( 5 mi) SSW of Idyllwild, CA
map1.22024/02/23 04:47:4836.389N116.992W5.5 14 km ( 9 mi) WSW of Furnace Creek, CA
map0.72024/02/23 04:31:2538.836N122.792W2.09 6 km ( 4 mi) WNW of Cobb, CA
map1.22024/02/23 04:27:2238.356N122.609W5 8 km ( 5 mi) NE of Penngrove, CA
map1.02024/02/23 03:49:5037.225N116.019W8.5 74 km (46 mi) ENE of Beatty, NV
map0.62024/02/23 03:36:1238.838N122.827W1.93 9 km ( 6 mi) NW of The Geysers, CA
map1.72024/02/23 02:54:0436.933N121.433W4.2 10 km ( 6 mi) NNW of Hollister, CA
map1.12024/02/23 02:30:3739.301N123.226W6.73 4 km ( 3 mi) NNW of Redwood Valley, CA
map0.82024/02/23 02:12:4438.792N122.723W1.76 3 km ( 2 mi) ENE of The Geysers, CA
map1.42024/02/23 02:04:4637.634N118.055W0.0 42 km (26 mi) NE of Dixon Lane-Meadow Creek, CA
map1.42024/02/23 02:02:1038.431N122.674W8.76 3 km ( 2 mi) SE of Santa Rosa, CA
map1.12024/02/23 01:57:3435.784N117.599W2.4 18 km (11 mi) W of Searles Valley, CA
map0.72024/02/23 01:38:5133.485N116.470W15.07 20 km (13 mi) ESE of Anza, CA
map0.82024/02/23 01:29:2135.971N117.364W-0.11 23 km (14 mi) N of Searles Valley, CA
map1.22024/02/23 01:28:5335.447N118.308W8.27 23 km (14 mi) SE of Bodfish, CA
map0.32024/02/23 01:26:3638.833N122.818W2.42 8 km ( 5 mi) NW of The Geysers, CA
map-0.02024/02/23 01:07:3933.483N116.493W13.45 19 km (12 mi) ESE of Anza, CA
map0.92024/02/23 01:07:1534.080N117.316W16.62 1 km ( 0 mi) NNW of Colton, CA
map0.82024/02/23 00:19:4834.095N118.171W8.44 3 km ( 2 mi) SW of South Pasadena, CA
map1.32024/02/22 23:52:1138.688N122.499W7.31 12 km ( 8 mi) SE of Middletown, CA
map1.22024/02/22 23:47:4932.825N115.605W13.35 4 km ( 3 mi) SW of Imperial, CA
map2.22024/02/22 23:35:0732.027N116.187W12.16 44 km (28 mi) ENE of Ensenada, B.C., MX
map0.82024/02/22 22:54:1737.442N118.859W9.07 24 km (15 mi) SSE of Mammoth Lakes, CA
map1.52024/02/22 22:52:0933.986N116.990W15.66 6 km ( 4 mi) E of Calimesa, CA
map0.72024/02/22 22:41:4933.420N116.371W11.27 18 km (11 mi) N of Borrego Springs, CA
map0.32024/02/22 22:35:3138.855N122.818W11.49 9 km ( 6 mi) WNW of Cobb, CA
map1.22024/02/22 22:35:2332.840N115.598W14.15 3 km ( 2 mi) WSW of Imperial, CA
map2.22024/02/22 22:24:5739.252N123.467W3.81 20 km (12 mi) SSW of Willits, CA
map1.12024/02/22 22:18:1838.847N122.810W1.65 8 km ( 5 mi) WNW of Cobb, CA
map1.72024/02/22 22:14:1338.735N119.220W6.8 12 km ( 7 mi) SE of Smith, NV
map0.92024/02/22 21:57:2435.123N118.156W6.2 8 km ( 5 mi) NNE of Mojave, CA
map0.12024/02/22 21:46:3137.538N118.832W5.18 17 km (11 mi) SE of Mammoth Lakes, CA
map1.12024/02/22 21:43:1138.175N117.886W12.9 59 km (36 mi) WNW of Tonopah, NV
map0.82024/02/22 21:07:1938.812N122.819W2.89 7 km ( 4 mi) NW of The Geysers, CA
map0.52024/02/22 20:29:3637.538N118.833W5.24 17 km (10 mi) SE of Mammoth Lakes, CA
map0.62024/02/22 20:20:2038.799N122.738W0.89 3 km ( 2 mi) SSW of Cobb, CA
map1.12024/02/22 20:11:4237.864N116.973W4.5 32 km (20 mi) SE of Tonopah, NV
map1.62024/02/22 20:02:2540.578N124.194W18.49 4 km ( 2 mi) SW of Fortuna, CA
map0.92024/02/22 19:45:1833.946N117.100W15.14 6 km ( 4 mi) SW of Calimesa, CA
map0.42024/02/22 19:42:1637.569N116.879W0.0 64 km (40 mi) SSE of Tonopah, NV
map0.82024/02/22 19:38:0938.830N122.816W1.85 8 km ( 5 mi) NW of The Geysers, CA
map0.72024/02/22 19:03:5938.832N122.819W1.73 8 km ( 5 mi) NW of The Geysers, CA
map1.42024/02/22 18:19:4536.090N117.915W1.89 6 km ( 4 mi) NNE of Coso Junction, CA
map0.32024/02/22 18:16:4938.792N122.781W1.29 3 km ( 2 mi) NW of The Geysers, CA
map1.12024/02/22 17:51:3333.044N116.178W4.97 12 km ( 7 mi) SSW of Ocotillo Wells, CA
map0.22024/02/22 17:26:1633.447N116.586W7.29 14 km ( 9 mi) SE of Anza, CA
map1.02024/02/22 17:13:2138.769N122.737W1.09 2 km ( 1 mi) ESE of The Geysers, CA
map1.52024/02/22 17:09:1437.432N121.773W9.99 7 km ( 4 mi) NE of East Foothills, CA
map0.72024/02/22 16:36:4438.822N122.797W8.79 6 km ( 4 mi) NW of The Geysers, CA
map0.22024/02/22 16:35:5838.820N122.825W2.34 8 km ( 5 mi) NW of The Geysers, CA
map1.22024/02/22 16:34:0932.821N115.607W11 5 km ( 3 mi) SW of Imperial, CA
map1.42024/02/22 16:16:3338.825N122.805W1.36 7 km ( 4 mi) NW of The Geysers, CA
map0.62024/02/22 16:16:2638.827N122.806W0.92 7 km ( 4 mi) NW of The Geysers, CA
map1.12024/02/22 16:09:5338.801N122.773W1.52 3 km ( 2 mi) NNW of The Geysers, CA
map1.62024/02/22 16:07:3933.975N116.947W15.56 6 km ( 4 mi) NNE of Beaumont, CA
map-0.22024/02/22 16:06:0338.837N122.817W2.44 8 km ( 5 mi) W of Cobb, CA
map0.22024/02/22 15:46:5933.594N116.609W15.2 7 km ( 5 mi) NE of Anza, CA
map0.82024/02/22 15:09:2736.813N121.401W6.03 3 km ( 2 mi) W of Ridgemark, CA
map0.82024/02/22 15:03:3733.273N116.397W4.83 3 km ( 2 mi) NW of Borrego Springs, CA
map1.72024/02/22 14:59:2233.938N116.978W16.31 1 km ( 1 mi) N of Beaumont, CA
map0.62024/02/22 14:48:3737.532N121.908W7.71 7 km ( 4 mi) E of Fremont, CA
map1.52024/02/22 14:30:0038.589N117.181W13.8 58 km (36 mi) N of Tonopah, NV
map1.82024/02/22 14:29:3738.840N122.823W2.28 9 km ( 6 mi) WNW of Cobb, CA
map1.62024/02/22 14:16:0933.955N116.942W14.3 4 km ( 3 mi) NE of Beaumont, CA
map1.02024/02/22 13:17:5933.319N116.293W9.74 10 km ( 6 mi) NE of Borrego Springs, CA
map0.32024/02/22 12:57:2538.835N122.818W2.73 8 km ( 5 mi) W of Cobb, CA
map0.92024/02/22 12:54:0338.812N122.831W2.11 8 km ( 5 mi) WNW of The Geysers, CA
map0.82024/02/22 12:37:3238.831N122.816W1.72 8 km ( 5 mi) NW of The Geysers, CA
map1.92024/02/22 12:31:4036.218N120.347W9.04 9 km ( 5 mi) N of Coalinga, CA
map2.42024/02/22 12:27:4735.873N117.671W7.13 22 km (14 mi) ESE of Little Lake, CA
map1.02024/02/22 12:20:3338.847N122.825W2.08 9 km ( 6 mi) WNW of Cobb, CA
map0.92024/02/22 12:13:3437.418N121.674W9.04 13 km ( 8 mi) ENE of East Foothills, CA
map2.02024/02/22 12:10:5236.222N120.475W14.16 14 km ( 9 mi) NW of Coalinga, CA
map0.42024/02/22 11:40:4637.526N118.837W1.04 18 km (11 mi) SE of Mammoth Lakes, CA
map0.62024/02/22 11:38:3238.832N122.818W1.61 8 km ( 5 mi) NW of The Geysers, CA
map0.82024/02/22 11:26:1238.836N122.807W2.26 7 km ( 5 mi) WNW of Cobb, CA
map0.92024/02/22 11:01:3035.766N117.598W4.34 18 km (11 mi) W of Searles Valley, CA
map1.12024/02/22 10:58:1034.345N116.865W-1.37 9 km ( 6 mi) N of Big Bear City, CA
map1.12024/02/22 10:56:0237.538N121.826W2.99 14 km ( 9 mi) E of Fremont, CA
map1.52024/02/22 10:54:5235.101N119.124W0.27 25 km (15 mi) NW of Grapevine, CA
map0.42024/02/22 10:38:4938.832N122.813W2.18 8 km ( 5 mi) NW of The Geysers, CA
map0.02024/02/22 10:32:0338.834N122.780W1.14 5 km ( 3 mi) WNW of Cobb, CA
map1.12024/02/22 10:26:1938.800N122.809W1.98 5 km ( 3 mi) WNW of The Geysers, CA
map1.82024/02/22 10:10:3738.388N122.650W9.18 7 km ( 4 mi) NE of Rohnert Park, CA
map0.22024/02/22 10:05:0538.760N122.726W2.08 3 km ( 2 mi) SE of The Geysers, CA
MAP3.22024/02/22 09:35:1137.534N121.907W7.4 7 km ( 4 mi) E of Fremont, CA
map1.42024/02/22 09:17:3738.799N122.758W1.57 2 km ( 1 mi) N of The Geysers, CA
map1.32024/02/22 09:05:1634.691N116.420W11.53 24 km (15 mi) W of Ludlow, CA
map0.02024/02/22 08:42:3236.695N116.362W3.0 42 km (26 mi) SE of Beatty, NV
map1.22024/02/22 08:40:3338.749N122.700W1.03 6 km ( 4 mi) ESE of The Geysers, CA
map0.72024/02/22 08:20:3733.714N116.834W14.84 7 km ( 4 mi) SE of Valle Vista, CA
map1.62024/02/22 07:46:1232.456N116.282W13.97 24 km (15 mi) SE of Campo, CA
map0.02024/02/22 07:45:0333.517N116.757W3.71 9 km ( 5 mi) WSW of Anza, CA
map0.92024/02/22 07:38:4338.822N122.811W3.63 7 km ( 4 mi) NW of The Geysers, CA
map0.32024/02/22 07:35:0838.822N122.811W3.57 7 km ( 4 mi) NW of The Geysers, CA
map1.72024/02/22 07:25:5535.874N117.670W8.19 22 km (14 mi) ESE of Little Lake, CA
map1.92024/02/22 07:20:0034.026N116.772W13.09 12 km ( 8 mi) N of Cabazon, CA
map1.32024/02/22 07:13:2237.918N122.293W6.13 1 km ( 1 mi) NW of Kensington, CA
map0.42024/02/22 06:33:0633.507N116.491W14.51 18 km (11 mi) ESE of Anza, CA
map1.22024/02/22 06:18:4032.822N115.586W11.34 3 km ( 2 mi) SSW of Imperial, CA
map1.32024/02/22 05:42:2833.969N118.419W14.71 3 km ( 2 mi) ESE of Marina del Rey, CA
map0.32024/02/22 05:36:5438.789N122.765W1.86 2 km ( 1 mi) NNW of The Geysers, CA
map0.72024/02/22 04:57:1138.833N122.801W2.33 7 km ( 4 mi) W of Cobb, CA
map1.62024/02/22 04:51:2637.140N118.231W7.2 6 km ( 4 mi) ESE of Big Pine, CA
map0.82024/02/22 04:44:0338.837N122.792W1.96 6 km ( 4 mi) WNW of Cobb, CA
map0.32024/02/22 04:24:4438.792N122.759W2.3 2 km ( 1 mi) N of The Geysers, CA
map1.92024/02/22 04:10:1340.772N122.309W15.42 11 km ( 7 mi) NNE of Shasta Lake, CA
map0.92024/02/22 03:40:0838.824N122.813W2.26 7 km ( 4 mi) NW of The Geysers, CA
map1.12024/02/22 03:39:5038.826N122.812W1.21 7 km ( 4 mi) NW of The Geysers, CA
map1.52024/02/22 03:34:3138.825N122.794W2.87 6 km ( 4 mi) W of Cobb, CA
map0.72024/02/22 03:13:3933.939N116.952W5.59 3 km ( 2 mi) ENE of Beaumont, CA
map0.72024/02/22 03:01:2438.833N122.815W1.51 8 km ( 5 mi) NW of The Geysers, CA
map1.52024/02/22 02:48:3332.764N115.509W12.63 4 km ( 3 mi) NNE of Heber, CA
map0.82024/02/22 02:45:4438.807N122.837W1.61 8 km ( 5 mi) WNW of The Geysers, CA
map0.92024/02/22 02:38:0238.838N122.797W2.33 7 km ( 4 mi) WNW of Cobb, CA
map1.12024/02/22 02:34:5937.437N116.922W7.2 61 km (38 mi) NNW of Beatty, NV
map1.32024/02/22 02:34:3833.308N116.245W4.27 13 km ( 8 mi) ENE of Borrego Springs, CA
map1.32024/02/22 02:08:0132.716N115.447W8.56 6 km ( 4 mi) NE of Calexico, CA
map0.92024/02/22 02:00:1535.914N117.687W7.9 20 km (12 mi) E of Little Lake, CA
map1.32024/02/22 01:50:0934.448N119.410W-0.18 11 km ( 7 mi) ENE of Carpinteria, CA
map0.92024/02/22 01:49:5636.200N120.344W9.06 7 km ( 4 mi) N of Coalinga, CA
map1.32024/02/22 01:41:3138.825N122.796W2.63 6 km ( 4 mi) W of Cobb, CA
map0.22024/02/22 01:41:1238.826N122.796W2.84 6 km ( 4 mi) W of Cobb, CA
map0.32024/02/22 01:38:0838.827N122.810W0.67 7 km ( 4 mi) NW of The Geysers, CA
map1.92024/02/22 01:29:0438.728N119.216W7.4 13 km ( 8 mi) SE of Smith, NV
map2.12024/02/22 01:28:0834.680N116.316W2.22 15 km ( 9 mi) WSW of Ludlow, CA
map0.82024/02/22 01:19:5638.833N122.814W1.78 8 km ( 5 mi) W of Cobb, CA
map-0.22024/02/22 01:18:2536.719N116.217W5.6 52 km (33 mi) ESE of Beatty, NV
map0.72024/02/22 00:54:0938.805N122.774W1.41 3 km ( 2 mi) NNW of The Geysers, CA
map1.72024/02/22 00:50:0838.733N119.216W6.4 12 km ( 8 mi) SE of Smith, NV
map2.52024/02/22 00:37:4338.167N117.946W11.9 64 km (39 mi) W of Tonopah, NV
map0.72024/02/22 00:16:5435.776N117.596W11.73 17 km (11 mi) W of Searles Valley, CA
map1.12024/02/21 23:53:5935.666N117.479W7.56 13 km ( 8 mi) SSW of Searles Valley, CA
map1.42024/02/21 23:45:4535.713N117.570W5.08 14 km ( 9 mi) NE of Ridgecrest, CA
map0.92024/02/21 23:33:5533.961N117.125W14.19 7 km ( 5 mi) WSW of Calimesa, CA
map0.52024/02/21 23:32:3638.814N122.813W3.75 6 km ( 4 mi) NW of The Geysers, CA
map0.42024/02/21 23:23:3038.831N122.800W2.32 7 km ( 4 mi) W of Cobb, CA
map0.72024/02/21 23:15:2839.422N119.933W7.4 10 km ( 6 mi) S of Mogul, NV
map1.22024/02/21 23:04:5234.528N118.102W9.92 3 km ( 2 mi) NNE of Vincent, CA
map1.12024/02/21 23:04:4038.825N122.854W2.71 10 km ( 6 mi) WNW of The Geysers, CA
map0.32024/02/21 22:44:1338.838N122.799W2.88 7 km ( 4 mi) WNW of Cobb, CA
map0.82024/02/21 22:44:0738.839N122.780W0.91 5 km ( 3 mi) WNW of Cobb, CA
map1.52024/02/21 22:37:1832.718N115.447W9.63 7 km ( 4 mi) NE of Calexico, CA
map2.12024/02/21 22:37:0633.913N118.840W3.4 11 km ( 7 mi) SSW of Malibu, CA
map1.42024/02/21 22:34:5737.799N122.584W10.86 10 km ( 6 mi) SSW of Tamalpais-Homestead Valley, CA
map0.62024/02/21 22:31:4438.816N122.815W3.04 7 km ( 4 mi) NW of The Geysers, CA
map1.12024/02/21 22:30:3138.817N122.815W2.79 7 km ( 4 mi) NW of The Geysers, CA
map1.52024/02/21 22:29:5038.691N119.450W15.3 14 km ( 9 mi) SW of Smith Valley, NV
map1.52024/02/21 22:27:2832.214N116.380W19.59 44 km (28 mi) S of Campo, CA
map1.12024/02/21 22:18:3738.809N122.816W2.95 6 km ( 4 mi) NW of The Geysers, CA
map1.52024/02/21 22:08:1535.677N117.547W7.79 13 km ( 8 mi) ENE of Ridgecrest, CA
map1.92024/02/21 22:05:3935.874N117.670W7.85 22 km (14 mi) ESE of Little Lake, CA
map0.72024/02/21 21:52:4236.481N115.837W10.9 34 km (21 mi) NNE of Pahrump, NV
map2.62024/02/21 21:50:2432.271N116.579W18.34 32 km (20 mi) E of Primo Tapia, B.C., MX
map1.02024/02/21 21:40:0236.473N115.792W8.0 35 km (22 mi) NE of Pahrump, NV
map0.82024/02/21 21:37:1236.031N117.785W1.78 15 km ( 9 mi) E of Coso Junction, CA
map0.72024/02/21 21:32:1733.808N116.947W7.6 3 km ( 2 mi) NNE of San Jacinto, CA
map-0.12024/02/21 21:31:3936.797N116.079W5.5 61 km (38 mi) ESE of Beatty, NV
map1.02024/02/21 20:59:4140.056N119.982W10.1 42 km (26 mi) N of Cold Springs, NV
map1.32024/02/21 20:50:4138.409N122.194W7.47 15 km ( 9 mi) E of Yountville, CA
map0.72024/02/21 20:47:1534.047N117.247W15.6 1 km ( 1 mi) E of Loma Linda, CA
map2.92024/02/21 20:39:2538.151N117.949W13.7 64 km (39 mi) W of Tonopah, NV
map1.12024/02/21 20:34:2137.632N118.905W5.87 7 km ( 4 mi) E of Mammoth Lakes, CA
map0.72024/02/21 20:24:0135.898N117.711W9.55 18 km (11 mi) ESE of Little Lake, CA
map0.82024/02/21 20:20:4938.838N122.808W2.29 8 km ( 5 mi) WNW of Cobb, CA
map0.52024/02/21 20:17:3137.635N118.907W5.68 6 km ( 4 mi) E of Mammoth Lakes, CA
map1.12024/02/21 20:06:0538.767N122.703W2.09 5 km ( 3 mi) ESE of The Geysers, CA
map0.42024/02/21 19:40:0238.832N122.817W1.95 8 km ( 5 mi) NW of The Geysers, CA
map0.02024/02/21 19:34:4338.836N122.816W1.7 8 km ( 5 mi) W of Cobb, CA
map0.72024/02/21 19:17:5338.834N122.799W1.97 7 km ( 4 mi) W of Cobb, CA
map1.12024/02/21 19:14:3738.780N122.758W0.9 0 km ( 0 mi) NNW of The Geysers, CA
map0.42024/02/21 19:03:0638.814N122.831W1.1 8 km ( 5 mi) WNW of The Geysers, CA
map0.32024/02/21 18:56:3038.826N122.853W2.21 10 km ( 6 mi) WNW of The Geysers, CA
map0.62024/02/21 18:56:2633.273N116.778W12.74 4 km ( 2 mi) NNW of Lake Henshaw, CA
map2.32024/02/21 18:55:4537.111N118.246W9.32 7 km ( 4 mi) SSE of Big Pine, CA
map-0.12024/02/21 18:53:2236.587N116.097W3.0 43 km (27 mi) N of Pahrump, NV
map1.22024/02/21 18:31:4238.806N122.739W1.58 2 km ( 1 mi) SW of Cobb, CA
map0.72024/02/21 18:30:2833.656N116.739W17.78 9 km ( 6 mi) S of Idyllwild, CA
map1.62024/02/21 18:15:3340.246N124.341W5.78 34 km (21 mi) SW of Rio Dell, CA
map0.62024/02/21 18:14:0233.527N116.518W12.94 15 km ( 9 mi) ESE of Anza, CA
map1.12024/02/21 18:01:1835.675N117.507W4.73 14 km ( 9 mi) SW of Searles Valley, CA
map1.22024/02/21 17:57:3238.834N122.817W1.8 8 km ( 5 mi) NW of The Geysers, CA
map1.72024/02/21 17:06:0636.576N121.244W2.71 18 km (11 mi) NNE of Soledad, CA
map1.42024/02/21 16:25:5838.719N117.112W0.0 73 km (45 mi) N of Tonopah, NV
map0.42024/02/21 16:03:3338.836N122.804W2.82 7 km ( 4 mi) WNW of Cobb, CA
map0.52024/02/21 15:50:3733.567N116.665W8.52 2 km ( 1 mi) NNE of Anza, CA
map1.62024/02/21 15:50:0635.029N119.099W10.26 18 km (11 mi) WNW of Grapevine, CA
map1.42024/02/21 15:49:2138.179N117.868W10.0 57 km (35 mi) WNW of Tonopah, NV
map1.32024/02/21 15:46:3638.790N122.761W0.73 1 km ( 1 mi) NNW of The Geysers, CA
map1.22024/02/21 15:34:1835.031N119.099W9.23 18 km (11 mi) WNW of Grapevine, CA
map0.92024/02/21 14:56:3538.824N122.788W0.95 6 km ( 4 mi) W of Cobb, CA
map0.82024/02/21 14:36:0238.814N122.819W2.56 7 km ( 4 mi) NW of The Geysers, CA
map1.12024/02/21 13:18:2235.677N117.497W5.21 13 km ( 8 mi) SW of Searles Valley, CA
map0.72024/02/21 13:05:1538.834N122.804W2.12 7 km ( 4 mi) W of Cobb, CA
map0.12024/02/21 12:56:0933.657N116.758W14.35 10 km ( 6 mi) SSW of Idyllwild, CA
map0.32024/02/21 12:55:1838.824N122.799W1.85 6 km ( 4 mi) NW of The Geysers, CA
map1.22024/02/21 12:49:4835.395N118.225W9.12 32 km (20 mi) SE of Bodfish, CA
map1.32024/02/21 12:43:0638.157N117.898W10.9 59 km (37 mi) W of Tonopah, NV
map1.02024/02/21 12:38:0438.814N122.822W2.65 7 km ( 4 mi) NW of The Geysers, CA
map1.72024/02/21 12:31:4833.849N117.488W-0.44 1 km ( 1 mi) E of Quarry at CORONA (Probable quarry explosion)
map1.42024/02/21 12:07:5633.138N115.630W9.16 11 km ( 7 mi) W of Calipatria, CA
map1.82024/02/21 12:03:1833.128N115.621W8.9 10 km ( 6 mi) W of Calipatria, CA
map1.02024/02/21 11:59:2137.964N122.034W9.64 2 km ( 1 mi) WSW of Concord, CA
map1.42024/02/21 11:56:4534.982N118.190W-0.93 4 km ( 2 mi) SSW of Quarry at TPO-DBM (Probable quarry explosion)
map1.62024/02/21 11:55:3233.306N116.244W5.24 13 km ( 8 mi) ENE of Borrego Springs, CA
map0.62024/02/21 11:27:3837.012N116.012W5.3 67 km (42 mi) E of Beatty, NV
map0.92024/02/21 11:14:1333.696N116.802W16.34 9 km ( 6 mi) WSW of Idyllwild, CA
map0.82024/02/21 11:04:2738.815N122.820W2.62 7 km ( 4 mi) NW of The Geysers, CA
map1.02024/02/21 10:42:2638.799N122.805W2.86 5 km ( 3 mi) WNW of The Geysers, CA
map1.02024/02/21 10:37:1635.896N117.737W8.33 16 km (10 mi) ESE of Little Lake, CA
map1.12024/02/21 10:32:4138.822N122.786W1.83 5 km ( 3 mi) W of Cobb, CA
map0.12024/02/21 10:29:5938.843N122.788W2.22 6 km ( 4 mi) WNW of Cobb, CA
map0.82024/02/21 10:25:1738.827N122.811W1.26 7 km ( 5 mi) NW of The Geysers, CA
map1.02024/02/21 10:21:4334.050N116.958W15.94 8 km ( 5 mi) ENE of Yucaipa, CA
map0.92024/02/21 10:19:2135.655N117.500W2.12 15 km ( 9 mi) SW of Searles Valley, CA
map0.82024/02/21 10:19:1635.655N117.495W3.01 15 km ( 9 mi) SSW of Searles Valley, CA
map0.72024/02/21 10:17:3038.839N122.823W1.83 9 km ( 6 mi) WNW of Cobb, CA
map-0.22024/02/21 10:06:1436.743N116.289W8.3 45 km (28 mi) ESE of Beatty, NV
map2.22024/02/21 09:51:4438.841N121.409W16.51 12 km ( 7 mi) WSW of Lincoln, CA
map2.02024/02/21 08:37:5632.820N115.606W11.89 5 km ( 3 mi) SW of Imperial, CA
map0.82024/02/21 07:46:5938.812N122.828W1.61 7 km ( 5 mi) WNW of The Geysers, CA
map1.32024/02/21 07:39:5938.843N122.840W2.01 10 km ( 6 mi) NW of The Geysers, CA
map0.82024/02/21 07:14:1535.577N118.264W5.14 19 km (12 mi) ESE of Lake Isabella, CA
map1.92024/02/21 07:03:5333.923N118.395W14.5 2 km ( 1 mi) ENE of El Segundo, CA
map0.72024/02/21 07:01:0736.504N115.808W13.9 38 km (23 mi) NNE of Pahrump, NV
map0.52024/02/21 06:51:5038.828N122.814W2.26 8 km ( 5 mi) NW of The Geysers, CA
map0.62024/02/21 06:50:1236.505N115.806W12.6 38 km (23 mi) NNE of Pahrump, NV
map1.52024/02/21 06:21:4035.351N118.620W4.81 25 km (15 mi) NE of Arvin, CA
map1.62024/02/21 06:21:3138.820N122.787W1.29 5 km ( 3 mi) NNW of The Geysers, CA
map0.82024/02/21 06:19:4438.819N122.816W2.63 7 km ( 4 mi) NW of The Geysers, CA
MAP3.52024/02/21 06:01:3235.865N120.416W8.81 4 km ( 2 mi) SSE of Parkfield, CA
map0.62024/02/21 05:53:0238.812N122.829W1.92 7 km ( 5 mi) WNW of The Geysers, CA
map1.62024/02/21 05:46:1038.821N122.850W2.54 9 km ( 6 mi) WNW of The Geysers, CA
map1.12024/02/21 05:23:5638.792N122.760W1.84 2 km ( 1 mi) N of The Geysers, CA
map0.92024/02/21 04:59:4136.488N115.817W10.6 36 km (22 mi) NNE of Pahrump, NV
map1.72024/02/21 04:30:3839.498N122.944W7.36 34 km (21 mi) NE of Redwood Valley, CA
map1.02024/02/21 04:30:0835.776N117.573W5.58 15 km (10 mi) W of Searles Valley, CA
map0.92024/02/21 04:29:2135.631N117.568W7 10 km ( 6 mi) E of Ridgecrest, CA
map0.72024/02/21 04:25:2336.498N115.815W11.8 37 km (23 mi) NNE of Pahrump, NV
map0.72024/02/21 04:20:1136.474N115.796W9.0 35 km (22 mi) NNE of Pahrump, NV
map0.32024/02/21 04:17:4438.835N122.816W1.58 8 km ( 5 mi) W of Cobb, CA
map0.92024/02/21 03:58:3236.476N115.798W8.7 35 km (22 mi) NNE of Pahrump, NV
map1.02024/02/21 03:55:5035.695N117.508W4.96 12 km ( 8 mi) SW of Searles Valley, CA
map1.02024/02/21 03:41:0635.706N117.511W7.12 12 km ( 7 mi) SW of Searles Valley, CA
map1.22024/02/21 03:33:5332.826N115.604W14.1 4 km ( 2 mi) SW of Imperial, CA
map1.02024/02/21 03:27:2737.538N118.073W6.6 34 km (21 mi) NE of Bishop, CA
map1.82024/02/21 03:17:0935.390N118.220W7.34 33 km (21 mi) SE of Bodfish, CA
map1.82024/02/21 03:14:2234.575N118.948W9.76 20 km (12 mi) N of Fillmore, CA
map-0.22024/02/21 03:07:1538.826N122.791W1.62 6 km ( 4 mi) W of Cobb, CA
map0.72024/02/21 02:52:1238.840N122.822W2.09 9 km ( 5 mi) WNW of Cobb, CA
map1.32024/02/21 02:51:5438.781N122.746W0.27 1 km ( 1 mi) ENE of The Geysers, CA
map1.32024/02/21 02:50:5039.025N118.165W9.1 68 km (42 mi) NE of Hawthorne, NV
map2.32024/02/21 02:46:4840.319N124.459W8.6 33 km (21 mi) SSW of Ferndale, CA
map1.52024/02/21 02:16:3333.261N116.425W4.39 5 km ( 3 mi) W of Borrego Springs, CA
map1.12024/02/21 01:55:5538.838N122.812W1.89 8 km ( 5 mi) WNW of Cobb, CA
map1.82024/02/21 01:54:0137.749N122.564W9 10 km ( 6 mi) NW of Broadmoor, CA
map1.32024/02/21 01:33:2838.808N122.818W2.64 6 km ( 4 mi) WNW of The Geysers, CA
map1.42024/02/21 01:32:4736.941N121.437W5.55 11 km ( 7 mi) NNW of Hollister, CA
map0.42024/02/21 01:07:2436.494N121.079W6.74 23 km (15 mi) ENE of Soledad, CA
map2.72024/02/21 01:06:2939.492N122.947W9.43 34 km (21 mi) NE of Redwood Valley, CA
map2.22024/02/21 00:52:0634.004N118.227W15.72 3 km ( 2 mi) N of Huntington Park, CA
map2.62024/02/21 00:47:0634.005N118.228W16.38 3 km ( 2 mi) N of Huntington Park, CA
map1.22024/02/21 00:41:2737.029N121.485W5.47 8 km ( 5 mi) ENE of Gilroy, CA
map0.62024/02/21 00:32:3736.019N117.982W3.28 4 km ( 3 mi) SW of Coso Junction, CA
map0.72024/02/21 00:29:0733.271N116.776W12.8 3 km ( 2 mi) NNW of Lake Henshaw, CA
map1.02024/02/21 00:25:2335.398N118.224W7.73 32 km (20 mi) SE of Bodfish, CA
map0.22024/02/21 00:07:1038.845N122.817W2.01 9 km ( 5 mi) WNW of Cobb, CA
map0.72024/02/20 23:59:3834.169N117.386W10.59 4 km ( 3 mi) WNW of Muscoy, CA
map2.22024/02/20 23:58:1534.618N119.011W10.46 24 km (15 mi) SSW of Frazier Park, CA
map0.82024/02/20 23:46:5136.487N115.792W10.3 37 km (23 mi) NNE of Pahrump, NV
map0.82024/02/20 23:41:5738.841N122.826W2.1 9 km ( 6 mi) WNW of Cobb, CA
map1.12024/02/20 23:33:2438.804N122.778W1.23 4 km ( 2 mi) NNW of The Geysers, CA
map1.12024/02/20 23:20:5738.831N122.817W2.07 8 km ( 5 mi) NW of The Geysers, CA
map1.32024/02/20 23:19:5436.187N118.026W2.85 11 km ( 7 mi) S of Olancha, CA
map1.12024/02/20 23:02:4938.791N122.774W3.12 2 km ( 1 mi) NW of The Geysers, CA
map0.52024/02/20 22:14:0938.810N122.794W2.98 5 km ( 3 mi) NW of The Geysers, CA
map1.62024/02/20 22:13:2437.631N122.066W3.18 2 km ( 1 mi) SSE of Hayward, CA
map1.32024/02/20 22:06:4539.219N123.135W-0.62 8 km ( 5 mi) SE of Redwood Valley, CA
map0.02024/02/20 21:38:2838.827N122.790W1.57 6 km ( 4 mi) W of Cobb, CA
map-0.12024/02/20 21:29:2236.720N116.131W2.1 58 km (36 mi) N of Pahrump, NV
map1.52024/02/20 21:26:5338.807N122.794W3.13 5 km ( 3 mi) NW of The Geysers, CA
map2.22024/02/20 21:21:4340.303N124.593W8.07 41 km (26 mi) SW of Ferndale, CA
map1.42024/02/20 21:00:5433.829N115.793W3.58 36 km (22 mi) NNE of North Shore, CA
map1.02024/02/20 20:59:5934.042N117.062W16.26 2 km ( 1 mi) WNW of Yucaipa, CA
map1.12024/02/20 20:54:0138.836N122.803W2.2 7 km ( 4 mi) WNW of Cobb, CA
map0.92024/02/20 20:44:0136.500N116.581W5.7 25 km (15 mi) ENE of Furnace Creek, CA
map0.32024/02/20 20:12:1238.837N122.838W1.68 10 km ( 6 mi) NW of The Geysers, CA
map0.82024/02/20 19:24:5338.839N122.801W1.79 7 km ( 4 mi) WNW of Cobb, CA
map0.82024/02/20 19:10:5438.807N122.819W2.83 6 km ( 4 mi) WNW of The Geysers, CA
map0.52024/02/20 18:40:2433.492N116.481W13.75 19 km (12 mi) ESE of Anza, CA
map0.62024/02/20 18:28:4438.840N122.836W1.31 10 km ( 6 mi) NW of The Geysers, CA
map1.72024/02/20 18:24:4935.351N118.620W5.6 25 km (15 mi) NE of Arvin, CA
map2.32024/02/20 18:20:0335.350N118.617W6.72 25 km (15 mi) NE of Arvin, CA
map1.22024/02/20 18:18:3032.938N115.549W7.15 5 km ( 3 mi) SSW of Brawley, CA
map1.52024/02/20 18:11:0034.615N119.008W9.99 24 km (15 mi) SSW of Frazier Park, CA
map0.82024/02/20 18:07:2038.822N122.854W2.56 10 km ( 6 mi) WNW of The Geysers, CA
map1.02024/02/20 17:59:5338.818N122.824W2.25 7 km ( 5 mi) NW of The Geysers, CA
map1.12024/02/20 17:56:0138.834N122.809W2.21 8 km ( 5 mi) W of Cobb, CA
map0.72024/02/20 17:45:5638.816N122.827W1.46 7 km ( 5 mi) NW of The Geysers, CA
map0.72024/02/20 17:31:4438.842N122.822W1.85 9 km ( 6 mi) WNW of Cobb, CA
map1.12024/02/20 17:30:5935.049N117.662W-0.83 3 km ( 2 mi) NE of Quarry at BORON (Probable quarry explosion)
map1.12024/02/20 17:25:3238.830N122.815W1.89 8 km ( 5 mi) NW of The Geysers, CA
map1.42024/02/20 17:17:3532.781N115.829W7.32 16 km (10 mi) ENE of Ocotillo, CA
map1.52024/02/20 17:06:4238.183N117.887W11.9 59 km (37 mi) WNW of Tonopah, NV
map0.82024/02/20 16:58:4138.811N122.821W2 7 km ( 4 mi) WNW of The Geysers, CA
map1.02024/02/20 16:58:2438.811N122.822W1.83 7 km ( 4 mi) WNW of The Geysers, CA
map0.82024/02/20 16:55:4733.841N116.822W13.99 9 km ( 6 mi) SSW of Cabazon, CA
map0.82024/02/20 16:50:0838.789N122.769W2.59 2 km ( 1 mi) NW of The Geysers, CA
map2.32024/02/20 16:34:3438.786N122.765W2.57 1 km ( 1 mi) NW of The Geysers, CA
map1.52024/02/20 16:34:2238.787N122.767W2.12 1 km ( 1 mi) NW of The Geysers, CA
map0.72024/02/20 16:34:0338.825N122.825W1.13 8 km ( 5 mi) NW of The Geysers, CA
map1.82024/02/20 16:31:4333.350N116.365W11.5 10 km ( 7 mi) N of Borrego Springs, CA
map0.62024/02/20 16:30:1937.553N118.811W8.16 17 km (11 mi) ESE of Mammoth Lakes, CA
map2.02024/02/20 16:23:2935.049N117.662W-0.79 3 km ( 2 mi) NE of Quarry at BORON (Probable quarry explosion)
map0.72024/02/20 16:12:3438.807N122.819W3.01 6 km ( 4 mi) WNW of The Geysers, CA
map1.12024/02/20 16:11:2838.806N122.818W2.64 6 km ( 4 mi) WNW of The Geysers, CA
map0.82024/02/20 15:59:4038.787N122.738W4.14 2 km ( 1 mi) ENE of The Geysers, CA
map0.72024/02/20 15:57:3133.713N116.773W15.09 6 km ( 4 mi) WSW of Idyllwild, CA
map1.02024/02/20 15:34:1638.791N122.760W0.83 2 km ( 1 mi) NNW of The Geysers, CA
map1.62024/02/20 15:26:0533.702N116.825W15.71 8 km ( 5 mi) SE of Valle Vista, CA
map1.62024/02/20 15:21:2138.910N122.996W2.39 12 km ( 7 mi) N of Cloverdale, CA
map0.82024/02/20 14:43:5635.890N117.722W4.52 17 km (11 mi) ESE of Little Lake, CA
map1.22024/02/20 14:35:2137.638N119.395W-0.73 20 km (12 mi) SE of Yosemite Valley, CA
map0.72024/02/20 14:19:2538.826N122.853W1.7 10 km ( 6 mi) WNW of The Geysers, CA
map0.82024/02/20 14:02:5936.603N116.261W5.0 49 km (31 mi) NNW of Pahrump, NV
map0.72024/02/20 14:02:2138.813N122.879W3.83 11 km ( 7 mi) WNW of The Geysers, CA
map0.32024/02/20 14:01:0538.841N122.837W0.92 10 km ( 6 mi) NW of The Geysers, CA
map1.12024/02/20 13:31:1338.792N122.774W3.6 2 km ( 1 mi) NW of The Geysers, CA
map1.12024/02/20 13:09:0438.834N122.803W1.94 7 km ( 4 mi) W of Cobb, CA
map1.32024/02/20 12:55:1833.037N116.423W8.05 17 km (11 mi) ESE of Julian, CA
map1.42024/02/20 12:31:5032.772N116.894W-0.26 4 km ( 2 mi) ENE of Quarry at SYS-CPE (Probable quarry explosion)
map1.62024/02/20 12:25:4432.613N116.990W-0.43 2 km ( 1 mi) W of Quarry at SYS-1 (Probable quarry explosion)
map1.12024/02/20 12:24:1935.932N117.682W2.34 20 km (13 mi) E of Little Lake, CA
map1.92024/02/20 12:05:5138.789N122.726W1.12 3 km ( 2 mi) ENE of The Geysers, CA
map1.32024/02/20 11:59:3634.987N118.186W-0.85 3 km ( 2 mi) SSW of Quarry at TPO-DBM (Probable quarry explosion)
map1.42024/02/20 11:55:5037.284N117.603W8.7 62 km (39 mi) ENE of Big Pine, CA
map1.72024/02/20 11:49:4637.910N121.982W8.91 5 km ( 3 mi) SW of Clayton, CA
map2.22024/02/20 11:38:3040.517N124.381W17.79 12 km ( 7 mi) SW of Ferndale, CA
map1.32024/02/20 11:28:2032.864N115.481W4.97 8 km ( 5 mi) ENE of Imperial, CA
map0.92024/02/20 11:15:3436.492N115.809W7.5 36 km (23 mi) NNE of Pahrump, NV
map0.72024/02/20 11:09:3933.519N116.445W10.69 20 km (13 mi) SW of La Quinta, CA
map2.42024/02/20 10:43:2136.472N115.791W10.4 35 km (22 mi) NE of Pahrump, NV
map1.22024/02/20 10:40:3833.978N117.204W13.07 6 km ( 4 mi) NNE of Moreno Valley, CA
map0.72024/02/20 10:32:3338.836N122.810W2.06 8 km ( 5 mi) W of Cobb, CA
map1.02024/02/20 10:20:3135.795N117.621W10.38 20 km (12 mi) W of Searles Valley, CA
map1.12024/02/20 10:19:2738.839N122.813W1.81 8 km ( 5 mi) WNW of Cobb, CA
map1.22024/02/20 10:07:4238.816N122.811W1.23 6 km ( 4 mi) NW of The Geysers, CA
map0.82024/02/20 10:03:1433.487N116.758W6.42 11 km ( 7 mi) SW of Anza, CA
map1.52024/02/20 10:01:5133.257N116.424W4.11 5 km ( 3 mi) W of Borrego Springs, CA
map0.92024/02/20 10:01:0333.264N116.424W3.83 5 km ( 3 mi) W of Borrego Springs, CA
map1.92024/02/20 09:30:3532.775N115.841W7.55 15 km ( 9 mi) ENE of Ocotillo, CA
map1.12024/02/20 09:20:4538.793N122.757W0.47 2 km ( 1 mi) N of The Geysers, CA
map1.52024/02/20 09:04:4237.964N122.043W13.8 2 km ( 1 mi) NE of Pleasant Hill, CA
map0.92024/02/20 08:56:0938.813N122.827W1.74 7 km ( 5 mi) WNW of The Geysers, CA
map1.12024/02/20 08:07:2838.841N122.838W1.56 10 km ( 6 mi) NW of The Geysers, CA
map0.72024/02/20 07:47:4636.501N115.811W13.1 37 km (23 mi) NNE of Pahrump, NV
map1.12024/02/20 07:08:5136.484N115.813W12.1 35 km (22 mi) NNE of Pahrump, NV
map0.72024/02/20 07:05:2338.847N122.819W1.7 9 km ( 5 mi) WNW of Cobb, CA
map1.02024/02/20 06:52:4233.979N117.203W12.56 6 km ( 4 mi) NNE of Moreno Valley, CA
map0.52024/02/20 06:51:0533.674N116.763W12.8 8 km ( 5 mi) SSW of Idyllwild, CA
map0.82024/02/20 06:42:1936.506N115.804W12.2 38 km (24 mi) NNE of Pahrump, NV
map0.72024/02/20 06:34:2436.481N115.818W10.8 35 km (22 mi) NNE of Pahrump, NV
map0.82024/02/20 06:25:5636.487N115.812W11.4 36 km (22 mi) NNE of Pahrump, NV
map1.42024/02/20 06:21:5835.650N117.460W5.72 14 km ( 9 mi) SSW of Searles Valley, CA
map1.32024/02/20 06:20:2534.105N117.313W15.43 3 km ( 2 mi) SW of San Bernardino, CA
map2.42024/02/20 05:22:1337.965N122.032W14.73 1 km ( 1 mi) W of Concord, CA
map0.82024/02/20 05:21:1238.822N122.787W1.22 6 km ( 3 mi) W of Cobb, CA
map1.22024/02/20 05:20:5937.301N117.596W6.3 63 km (39 mi) ENE of Big Pine, CA
map0.92024/02/20 05:03:1636.491N115.809W12.0 36 km (23 mi) NNE of Pahrump, NV
map0.82024/02/20 04:44:5233.672N116.692W16.02 8 km ( 5 mi) SSE of Idyllwild, CA
map0.62024/02/20 04:38:2238.830N122.855W2.15 10 km ( 6 mi) NW of The Geysers, CA
map1.62024/02/20 04:30:5738.417N122.234W7.74 11 km ( 7 mi) E of Yountville, CA
map1.22024/02/20 04:27:3938.416N122.234W6.66 11 km ( 7 mi) E of Yountville, CA
map0.02024/02/20 04:03:5936.799N116.083W6.0 61 km (38 mi) E of Beatty, NV
map0.82024/02/20 04:03:0438.822N122.809W2.81 7 km ( 4 mi) NW of The Geysers, CA
map1.42024/02/20 03:22:2038.814N122.807W0.81 6 km ( 4 mi) NW of The Geysers, CA
map0.82024/02/20 02:58:3838.854N122.828W10.27 10 km ( 6 mi) WNW of Cobb, CA
map0.72024/02/20 02:50:2438.830N122.816W2.06 8 km ( 5 mi) NW of The Geysers, CA
map1.92024/02/20 02:45:0836.835N117.468W8.0 38 km (24 mi) NW of Stovepipe Wells, CA
map1.32024/02/20 02:43:1235.480N117.336W7.79 30 km (18 mi) ENE of Johannesburg, CA
map1.22024/02/20 02:29:4633.266N116.429W4.66 5 km ( 3 mi) WNW of Borrego Springs, CA
map1.92024/02/20 02:29:3936.674N121.342W2.61 16 km (10 mi) S of Ridgemark, CA
map1.02024/02/20 02:27:0033.943N117.105W14.62 7 km ( 4 mi) SW of Calimesa, CA
map1.22024/02/20 02:25:1337.707N122.142W8.78 2 km ( 1 mi) SSE of San Leandro, CA
map1.22024/02/20 02:02:0435.951N117.705W3.9 18 km (11 mi) E of Little Lake, CA
map1.12024/02/20 01:37:4936.039N120.989W6.54 23 km (14 mi) SSE of King City, CA
map0.92024/02/20 01:06:3336.497N115.804W11.7 37 km (23 mi) NNE of Pahrump, NV
map0.82024/02/20 00:09:1738.832N122.811W2.13 8 km ( 5 mi) NW of The Geysers, CA
map0.92024/02/19 23:08:3835.944N120.462W5.09 6 km ( 4 mi) NNW of Parkfield, CA
map1.12024/02/19 23:07:0932.930N116.348W10.28 21 km (13 mi) NE of Pine Valley, CA
map2.42024/02/19 22:53:2437.300N117.591W6.6 64 km (40 mi) ENE of Big Pine, CA
map1.22024/02/19 22:44:3835.798N117.621W10.37 20 km (12 mi) W of Searles Valley, CA
map0.72024/02/19 22:19:3933.686N116.714W16.16 6 km ( 4 mi) S of Idyllwild, CA
map2.02024/02/19 22:00:1438.732N119.225W9.8 12 km ( 7 mi) SE of Smith, NV
map1.22024/02/19 21:59:2137.010N116.013W5.7 67 km (41 mi) E of Beatty, NV
map2.42024/02/19 21:59:1538.728N119.221W9.7 12 km ( 8 mi) SE of Smith, NV
map0.72024/02/19 20:46:1738.800N122.775W1.09 3 km ( 2 mi) NNW of The Geysers, CA
map2.42024/02/19 20:31:1337.970N122.493W3.87 3 km ( 2 mi) E of San Rafael, CA
map1.52024/02/19 19:25:2335.392N118.226W6.97 33 km (20 mi) SE of Bodfish, CA
map2.32024/02/19 19:01:1840.522N124.347W19.32 9 km ( 6 mi) SW of Ferndale, CA
map1.42024/02/19 18:36:3136.913N121.579W5.79 6 km ( 4 mi) ENE of Aromas, CA